Time;durP1;ratioP1;P1;durP2;ratioP2;P2;SDS_P1;SDS_P2;PMS_P1;PMS_P2;Temp;Humidity;BMP_temperature;BMP_pressure;BME280_temperature;BME280_humidity;BME280_pressure;Samples;Min_cycle;Max_cycle;Signal;HPM_P1;HPM_P2
2021/03/02 00:01:06;;;;;;;5.37;4.67;;;9.00;1.00;;;;;;5093455;28;20812;-73
2021/03/02 00:03:36;;;;;;;11.60;6.63;;;8.90;1.00;;;;;;5115758;27;20448;-74
2021/03/02 00:06:04;;;;;;;10.63;6.30;;;8.90;1.00;;;;;;5106313;28;20946;-74
2021/03/02 00:08:32;;;;;;;6.17;5.43;;;8.90;1.00;;;;;;5106273;28;20905;-74
2021/03/02 00:11:00;;;;;;;7.33;5.60;;;8.90;1.00;;;;;;5104025;27;20458;-72
2021/03/02 00:13:28;;;;;;;6.10;5.00;;;8.80;1.00;;;;;;5101343;28;20517;-74
2021/03/02 00:15:59;;;;;;;8.97;5.07;;;8.80;1.00;;;;;;5108272;28;20502;-74
2021/03/02 00:18:29;;;;;;;7.10;4.90;;;8.80;1.00;;;;;;5106319;28;20462;-76
2021/03/02 00:21:02;;;;;;;8.50;5.20;;;8.80;1.00;;;;;;5105974;28;20468;-75
2021/03/02 00:23:35;;;;;;;6.30;4.63;;;8.70;1.00;;;;;;5089263;28;20470;-75
2021/03/02 00:26:03;;;;;;;6.10;5.20;;;8.70;1.00;;;;;;5108473;28;20505;-75
2021/03/02 00:28:30;;;;;;;6.60;4.10;;;8.70;1.00;;;;;;5107059;28;20535;-74
2021/03/02 00:31:00;;;;;;;8.20;4.93;;;8.60;1.00;;;;;;5091206;28;20444;-74
2021/03/02 00:33:29;;;;;;;8.33;4.63;;;8.60;1.00;;;;;;5097188;28;20846;-75
2021/03/02 00:35:56;;;;;;;8.50;5.40;;;8.70;1.00;;;;;;5098969;28;20605;-73
2021/03/02 00:38:24;;;;;;;5.93;5.37;;;8.60;1.00;;;;;;5112803;27;20462;-73
2021/03/02 00:40:51;;;;;;;8.60;5.70;;;8.50;1.00;;;;;;5095252;28;20462;-75
2021/03/02 00:43:18;;;;;;;8.10;6.00;;;8.70;1.00;;;;;;5110740;28;20881;-75
2021/03/02 00:45:46;;;;;;;10.40;6.60;;;8.40;1.00;;;;;;5102928;28;20501;-73
2021/03/02 00:48:15;;;;;;;8.20;6.20;;;8.40;1.00;;;;;;5124554;27;20452;-73
2021/03/02 00:50:43;;;;;;;12.60;7.50;;;8.40;1.00;;;;;;5103018;28;20445;-74
2021/03/02 00:53:11;;;;;;;12.77;8.23;;;8.30;1.00;;;;;;5104690;28;20490;-74
2021/03/02 00:55:39;;;;;;;12.27;7.97;;;8.30;1.00;;;;;;5099328;28;20516;-75
2021/03/02 00:58:06;;;;;;;14.10;6.73;;;8.30;1.00;;;;;;5083529;28;20455;-75
2021/03/02 01:00:33;;;;;;;8.07;6.37;;;8.20;1.00;;;;;;5101928;28;21274;-74
2021/03/02 01:03:00;;;;;;;8.73;6.23;;;8.20;1.00;;;;;;5100866;28;20452;-74
2021/03/02 01:05:28;;;;;;;6.80;5.80;;;8.20;1.00;;;;;;5109291;28;20520;-75
2021/03/02 01:07:56;;;;;;;7.93;5.07;;;8.10;1.00;;;;;;5103883;28;20449;-75
2021/03/02 01:10:23;;;;;;;7.80;4.90;;;8.10;1.00;;;;;;5103250;28;20984;-75
2021/03/02 01:13:11;;;;;;;7.60;5.67;;;8.10;1.00;;;;;;5105026;28;20704;-76
2021/03/02 01:15:38;;;;;;;6.30;4.70;;;8.10;1.00;;;;;;5102226;28;20490;-75
2021/03/02 01:18:06;;;;;;;6.63;5.30;;;8.10;1.00;;;;;;5100574;28;20450;-74
2021/03/02 01:20:34;;;;;;;7.47;5.10;;;8.00;1.00;;;;;;5109061;28;20454;-75
2021/03/02 01:23:02;;;;;;;6.30;5.30;;;8.00;1.00;;;;;;5102993;28;20449;-76
2021/03/02 01:25:29;;;;;;;8.00;5.13;;;7.90;1.00;;;;;;5104857;28;20457;-75
2021/03/02 01:27:56;;;;;;;7.60;5.93;;;8.00;1.00;;;;;;5098431;28;20466;-76
2021/03/02 01:30:26;;;;;;;10.50;5.20;;;7.90;1.00;;;;;;5100200;28;20471;-75
2021/03/02 01:32:53;;;;;;;6.80;4.80;;;7.90;1.00;;;;;;5097059;28;20484;-76
2021/03/02 01:35:21;;;;;;;7.40;5.47;;;7.90;1.00;;;;;;5108684;28;20862;-76
2021/03/02 01:37:52;;;;;;;6.60;4.50;;;7.80;1.00;;;;;;5095351;28;20447;-75
2021/03/02 01:40:21;;;;;;;6.50;5.20;;;7.80;1.00;;;;;;5105096;28;20454;-74
2021/03/02 01:42:48;;;;;;;5.83;4.73;;;7.80;1.00;;;;;;5105384;28;20952;-74
2021/03/02 01:45:17;;;;;;;8.60;4.47;;;7.80;1.00;;;;;;5093706;28;21027;-75
2021/03/02 01:47:48;;;;;;;7.70;5.60;;;7.70;1.00;;;;;;5104494;28;20860;-74
2021/03/02 01:50:15;;;;;;;10.07;5.70;;;7.70;1.00;;;;;;5106150;28;20846;-74
2021/03/02 01:52:42;;;;;;;9.53;5.40;;;7.70;1.00;;;;;;5106250;28;20479;-75
2021/03/02 01:55:10;;;;;;;8.20;5.17;;;7.50;1.00;;;;;;5101737;28;20482;-75
2021/03/02 01:57:38;;;;;;;7.93;5.13;;;7.70;1.00;;;;;;5088468;28;21111;-77
2021/03/02 02:00:12;;;;;;;6.50;5.17;;;7.70;1.00;;;;;;5104096;27;21243;-74
2021/03/02 02:02:48;;;;;;;8.27;5.27;;;7.70;1.00;;;;;;5101579;28;20454;-77
2021/03/02 02:05:15;;;;;;;6.73;5.93;;;7.70;1.00;;;;;;5102950;28;20453;-74
2021/03/02 02:07:47;;;;;;;4.50;4.07;;;7.60;1.00;;;;;;5118466;27;21195;-74
2021/03/02 02:10:41;;;;;;;7.27;4.60;;;7.60;1.00;;;;;;5100598;28;21073;-75
2021/03/02 02:13:16;;;;;;;5.37;4.33;;;7.60;1.00;;;;;;5101536;28;20497;-74
2021/03/02 02:15:46;;;;;;;6.60;4.23;;;7.60;1.00;;;;;;5109074;28;20489;-75
2021/03/02 02:18:18;;;;;;;8.93;6.40;;;7.50;1.00;;;;;;5100722;28;20466;-74
2021/03/02 02:20:51;;;;;;;7.63;5.37;;;7.50;1.00;;;;;;5105319;28;20544;-74
2021/03/02 02:23:38;;;;;;;7.80;5.17;;;7.50;1.00;;;;;;5098092;27;20450;-75
2021/03/02 02:26:15;;;;;;;6.90;5.20;;;7.50;1.00;;;;;;5099670;28;20557;-74
2021/03/02 02:28:45;;;;;;;7.77;5.20;;;7.50;1.00;;;;;;5102602;28;20552;-74
2021/03/02 02:31:14;;;;;;;6.03;5.13;;;7.50;1.00;;;;;;5079470;28;20950;-74
2021/03/02 02:33:45;;;;;;;7.53;4.93;;;7.40;1.00;;;;;;5090505;28;20841;-75
2021/03/02 02:36:17;;;;;;;8.93;5.10;;;7.40;1.00;;;;;;5103558;28;20481;-74
2021/03/02 02:38:47;;;;;;;9.00;6.40;;;7.30;1.00;;;;;;5106734;28;20452;-73
2021/03/02 02:41:15;;;;;;;7.53;5.57;;;7.30;1.00;;;;;;5097185;28;20457;-74
2021/03/02 02:43:44;;;;;;;10.03;5.50;;;7.30;1.00;;;;;;5096611;28;20458;-75
2021/03/02 02:46:12;;;;;;;7.77;5.47;;;7.30;1.00;;;;;;5106974;28;20480;-75
2021/03/02 02:48:39;;;;;;;8.67;5.77;;;7.20;1.00;;;;;;5097625;28;20672;-75
2021/03/02 02:51:07;;;;;;;9.27;5.03;;;7.20;1.00;;;;;;5105827;28;20437;-74
2021/03/02 02:53:36;;;;;;;9.20;6.20;;;7.20;1.00;;;;;;5087604;28;21121;-75
2021/03/02 02:56:04;;;;;;;6.47;4.93;;;7.30;1.00;;;;;;5107571;28;20473;-74
2021/03/02 02:58:38;;;;;;;6.00;5.40;;;7.20;1.00;;;;;;5100528;28;20458;-73
2021/03/02 03:01:07;;;;;;;7.13;5.47;;;7.10;1.00;;;;;;5094586;28;20452;-74
2021/03/02 03:03:38;;;;;;;7.00;4.97;;;7.10;1.00;;;;;;5095355;28;20518;-75
2021/03/02 03:06:10;;;;;;;7.13;5.30;;;7.10;1.00;;;;;;5119451;27;21502;-73
2021/03/02 03:08:38;;;;;;;7.07;4.47;;;7.10;1.00;;;;;;5096046;28;20834;-74
2021/03/02 03:11:05;;;;;;;9.13;4.80;;;7.10;1.00;;;;;;5098299;28;20453;-75
2021/03/02 03:13:37;;;;;;;8.37;6.07;;;7.00;1.00;;;;;;5101994;28;20478;-76
2021/03/02 03:16:08;;;;;;;7.03;5.17;;;7.00;1.00;;;;;;5102543;28;20617;-75
2021/03/02 03:18:44;;;;;;;7.27;4.50;;;6.90;1.00;;;;;;5094627;28;20495;-72
2021/03/02 03:21:12;;;;;;;9.33;6.23;;;6.90;1.00;;;;;;5096214;28;20467;-74
2021/03/02 03:23:40;;;;;;;9.43;4.90;;;6.90;1.00;;;;;;5102636;28;20499;-75
2021/03/02 03:26:09;;;;;;;6.37;4.17;;;6.80;1.00;;;;;;5101461;28;20534;-75
2021/03/02 03:28:37;;;;;;;6.70;4.50;;;6.80;1.00;;;;;;5104282;28;20460;-75
2021/03/02 03:31:07;;;;;;;8.27;5.60;;;6.80;1.00;;;;;;5106875;28;20461;-75
2021/03/02 03:33:35;;;;;;;9.57;5.27;;;6.80;1.00;;;;;;5102956;28;20477;-73
2021/03/02 03:36:04;;;;;;;7.17;4.53;;;6.80;1.00;;;;;;5097158;28;20577;-74
2021/03/02 03:38:31;;;;;;;7.50;4.57;;;6.80;1.00;;;;;;5095497;28;20514;-74
2021/03/02 03:40:58;;;;;;;5.43;4.63;;;6.90;1.00;;;;;;5109788;28;20565;-74
2021/03/02 03:43:25;;;;;;;10.87;5.40;;;6.90;1.00;;;;;;5107821;28;20450;-74
2021/03/02 03:45:52;;;;;;;8.50;5.40;;;6.80;1.00;;;;;;5100545;27;21062;-75
2021/03/02 03:48:20;;;;;;;7.87;4.87;;;6.80;1.00;;;;;;5090875;28;20453;-74
2021/03/02 03:50:47;;;;;;;6.33;4.77;;;6.80;1.00;;;;;;5076152;28;20873;-72
2021/03/02 03:53:17;;;;;;;5.67;4.00;;;6.80;1.00;;;;;;5102880;28;20465;-74
2021/03/02 03:55:46;;;;;;;6.50;4.83;;;6.70;1.00;;;;;;5106257;28;20526;-75
2021/03/02 03:58:18;;;;;;;5.83;4.07;;;6.80;1.00;;;;;;5089132;28;20441;-74
2021/03/02 04:00:49;;;;;;;8.93;5.23;;;6.80;1.00;;;;;;5090996;28;20476;-74
2021/03/02 04:03:18;;;;;;;6.60;4.60;;;6.70;1.00;;;;;;5109696;28;20510;-75
2021/03/02 04:05:48;;;;;;;5.13;4.50;;;6.70;1.00;;;;;;5110987;28;20476;-72
2021/03/02 04:08:15;;;;;;;6.83;4.50;;;6.70;1.00;;;;;;5104335;28;20445;-75
2021/03/02 04:10:43;;;;;;;7.60;4.53;;;6.70;1.00;;;;;;5107666;28;20816;-77
2021/03/02 04:13:13;;;;;;;6.20;4.90;;;6.70;1.00;;;;;;5108761;28;20479;-74
2021/03/02 04:15:40;;;;;;;6.37;5.37;;;6.60;1.00;;;;;;5105672;28;20444;-74
2021/03/02 04:18:12;;;;;;;7.50;4.93;;;6.50;1.00;;;;;;5104089;28;20941;-74
2021/03/02 04:20:39;;;;;;;8.17;5.43;;;6.50;1.00;;;;;;5111877;28;20444;-75
2021/03/02 04:23:08;;;;;;;9.83;6.40;;;6.50;1.00;;;;;;5102512;28;20870;-76
2021/03/02 04:25:36;;;;;;;14.30;8.87;;;6.60;1.00;;;;;;5103231;28;20457;-74
2021/03/02 04:28:04;;;;;;;9.07;6.00;;;6.70;1.00;;;;;;5107070;28;20460;-73
2021/03/02 04:30:32;;;;;;;7.70;5.87;;;6.60;1.00;;;;;;5101912;28;20464;-74
2021/03/02 04:33:00;;;;;;;9.90;6.10;;;6.60;1.00;;;;;;5107397;28;20508;-74
2021/03/02 04:35:27;;;;;;;9.20;6.13;;;6.60;1.00;;;;;;5103952;28;20451;-73
2021/03/02 04:37:55;;;;;;;7.00;5.10;;;6.60;1.00;;;;;;5104673;28;20437;-73
2021/03/02 04:40:23;;;;;;;9.10;5.70;;;6.50;1.00;;;;;;5093229;28;20469;-74
2021/03/02 04:42:50;;;;;;;6.47;4.67;;;6.50;1.00;;;;;;5101094;28;20522;-74
2021/03/02 04:45:17;;;;;;;8.17;5.93;;;6.50;1.00;;;;;;5108311;28;20450;-73
2021/03/02 04:47:46;;;;;;;11.93;8.07;;;6.40;1.00;;;;;;5105918;28;21056;-72
2021/03/02 04:50:15;;;;;;;15.50;8.07;;;6.50;1.00;;;;;;5100336;28;20460;-74
2021/03/02 04:52:43;;;;;;;13.13;6.83;;;6.50;1.00;;;;;;5102734;28;21023;-75
2021/03/02 04:55:11;;;;;;;10.10;7.83;;;6.60;1.00;;;;;;5105207;27;20488;-73
2021/03/02 04:57:39;;;;;;;12.33;7.60;;;6.50;1.00;;;;;;5088166;28;20480;-73
2021/03/02 05:00:08;;;;;;;13.23;7.67;;;6.50;1.00;;;;;;5103868;28;20496;-75
2021/03/02 05:02:35;;;;;;;14.40;8.03;;;6.50;1.00;;;;;;5097985;28;20514;-74
2021/03/02 05:05:04;;;;;;;13.47;8.33;;;6.40;1.00;;;;;;5108505;28;20453;-74
2021/03/02 05:07:31;;;;;;;21.60;10.67;;;6.40;1.00;;;;;;5100317;28;20484;-74
2021/03/02 05:09:58;;;;;;;25.50;14.70;;;6.30;1.00;;;;;;5106509;28;20543;-73
2021/03/02 05:12:26;;;;;;;24.37;12.53;;;6.30;1.00;;;;;;5105426;28;20466;-74
2021/03/02 05:14:54;;;;;;;24.27;13.43;;;6.30;1.00;;;;;;5110903;28;20453;-75
2021/03/02 05:17:21;;;;;;;25.23;14.10;;;6.30;1.00;;;;;;5103336;28;20818;-75
2021/03/02 05:19:49;;;;;;;23.80;13.23;;;6.20;1.00;;;;;;5095312;28;20459;-73
2021/03/02 05:22:16;;;;;;;18.80;12.50;;;6.20;1.00;;;;;;5103404;28;20457;-74
2021/03/02 05:24:43;;;;;;;12.03;10.13;;;6.20;1.00;;;;;;5098985;28;20457;-70
2021/03/02 05:27:10;;;;;;;16.23;9.30;;;6.20;1.00;;;;;;5099964;28;20485;-75
2021/03/02 05:29:37;;;;;;;16.63;8.83;;;6.10;1.00;;;;;;5109142;28;20453;-75
2021/03/02 05:32:06;;;;;;;13.20;8.70;;;6.20;1.00;;;;;;5107520;28;20441;-74
2021/03/02 05:34:33;;;;;;;19.05;10.00;;;6.10;1.00;;;;;;5113200;27;20510;-74
2021/03/02 05:37:00;;;;;;;15.63;9.05;;;6.10;1.00;;;;;;5104873;28;20211;-75
2021/03/02 05:39:27;;;;;;;9.57;7.25;;;6.10;1.00;;;;;;5106789;28;20241;-73
2021/03/02 05:41:55;;;;;;;15.00;7.53;;;6.10;1.00;;;;;;5117400;27;20199;-74
2021/03/02 05:44:23;;;;;;;13.43;8.80;;;6.10;1.00;;;;;;5104387;27;20453;-74
2021/03/02 05:46:50;;;;;;;10.50;7.88;;;6.00;1.00;;;;;;5104459;28;20473;-75
2021/03/02 05:49:19;;;;;;;9.10;6.77;;;6.10;1.00;;;;;;5102621;28;20675;-74
2021/03/02 05:51:46;;;;;;;10.27;6.87;;;6.10;1.00;;;;;;5101824;27;20457;-74
2021/03/02 05:54:17;;;;;;;12.63;7.20;;;6.10;1.00;;;;;;5094245;28;20483;-77
2021/03/02 05:56:45;;;;;;;11.60;7.00;;;6.10;1.00;;;;;;5093856;28;20551;-77
2021/03/02 05:59:12;;;;;;;11.47;7.03;;;6.00;1.00;;;;;;5081691;28;20475;-76
2021/03/02 06:01:39;;;;;;;8.93;5.83;;;6.00;1.00;;;;;;5102572;28;20510;-75
2021/03/02 06:04:12;;;;;;;11.17;6.00;;;6.00;1.00;;;;;;5105736;28;20802;-75
2021/03/02 06:06:40;;;;;;;12.00;5.83;;;6.00;1.00;;;;;;5104118;28;20478;-75
2021/03/02 06:09:07;;;;;;;15.33;7.50;;;6.00;1.00;;;;;;5123148;27;20453;-76
2021/03/02 06:11:35;;;;;;;9.90;6.47;;;6.00;1.00;;;;;;5105749;28;20472;-75
2021/03/02 06:14:19;;;;;;;7.67;5.00;;;6.10;1.00;;;;;;5077817;28;21532;-74
2021/03/02 06:16:56;;;;;;;6.53;5.67;;;6.20;1.00;;;;;;5099205;28;20477;-74
2021/03/02 06:19:37;;;;;;;8.70;5.10;;;6.30;1.00;;;;;;5099906;28;20470;-74
2021/03/02 06:22:05;;;;;;;8.23;5.70;;;6.40;1.00;;;;;;5083774;28;20465;-74
2021/03/02 06:24:40;;;;;;;6.83;5.43;;;6.30;1.00;;;;;;5103833;28;20654;-75
2021/03/02 06:27:11;;;;;;;8.93;5.83;;;6.40;1.00;;;;;;5105512;28;20817;-73
2021/03/02 06:29:40;;;;;;;9.90;5.90;;;6.20;1.00;;;;;;5099640;28;20539;-74
2021/03/02 06:32:08;;;;;;;9.77;5.73;;;6.20;1.00;;;;;;5100788;28;20454;-73
2021/03/02 06:34:35;;;;;;;10.53;5.90;;;6.30;1.00;;;;;;5104479;28;20564;-74
2021/03/02 06:37:05;;;;;;;8.10;5.90;;;6.30;1.00;;;;;;5100684;28;20464;-75
2021/03/02 06:39:34;;;;;;;8.67;6.17;;;6.40;1.00;;;;;;5098483;28;20455;-73
2021/03/02 06:42:15;;;;;;;11.30;5.93;;;6.40;1.00;;;;;;5105350;28;20506;-72
2021/03/02 06:44:44;;;;;;;10.00;6.10;;;6.40;1.00;;;;;;5097458;28;20585;-71
2021/03/02 06:47:30;;;;;;;9.70;5.83;;;6.40;1.00;;;;;;5103490;28;20481;-72
2021/03/02 06:49:59;;;;;;;9.53;6.60;;;6.30;1.00;;;;;;5097888;28;20490;-71
2021/03/02 06:52:33;;;;;;;7.70;5.65;;;6.30;1.00;;;;;;5107286;28;20475;-72
2021/03/02 06:55:01;;;;;;;7.03;5.70;;;6.30;1.00;;;;;;5100085;28;20901;-73
2021/03/02 06:57:28;;;;;;;9.63;6.90;;;6.20;1.00;;;;;;5101582;27;20472;-75
2021/03/02 06:59:56;;;;;;;10.52;6.40;;;6.20;1.00;;;;;;5102242;28;20505;-69
2021/03/02 07:02:36;;;;;;;9.93;5.90;;;6.40;1.00;;;;;;5127059;27;20658;-71
2021/03/02 07:05:06;;;;;;;10.90;6.50;;;6.40;1.00;;;;;;5104539;28;20460;-72
2021/03/02 07:07:34;;;;;;;13.67;6.90;;;6.30;1.00;;;;;;5098554;28;21002;-70
2021/03/02 07:10:03;;;;;;;11.70;6.73;;;6.30;1.00;;;;;;5103060;28;20878;-72
2021/03/02 07:12:32;;;;;;;9.63;6.60;;;6.30;1.00;;;;;;5099377;28;20457;-72
2021/03/02 07:15:01;;;;;;;9.77;7.13;;;6.40;1.00;;;;;;5106432;28;20821;-72
2021/03/02 07:17:38;;;;;;;9.80;8.45;;;6.50;1.00;;;;;;5094323;28;20443;-70
2021/03/02 07:20:09;;;;;;;9.90;7.17;;;6.80;1.00;;;;;;5085628;28;20236;-73
2021/03/02 07:22:39;;;;;;;10.33;7.60;;;6.90;1.00;;;;;;5100124;28;20469;-73
2021/03/02 07:25:10;;;;;;;10.07;6.47;;;6.80;1.00;;;;;;5108151;28;20490;-73
2021/03/02 07:27:41;;;;;;;9.13;6.13;;;6.90;1.00;;;;;;5120481;28;20465;-71
2021/03/02 07:30:10;;;;;;;10.77;6.63;;;7.00;1.00;;;;;;5107580;28;20475;-72
2021/03/02 07:32:38;;;;;;;9.60;7.05;;;7.00;1.00;;;;;;5105320;28;20446;-74
2021/03/02 07:35:09;;;;;;;9.00;7.60;;;7.10;1.00;;;;;;5124122;28;20485;-72
2021/03/02 07:37:38;;;;;;;10.83;6.57;;;7.20;1.00;;;;;;5091128;28;21024;-74
2021/03/02 07:40:09;;;;;;;10.60;7.23;;;7.20;1.00;;;;;;5100852;28;20450;-73
2021/03/02 07:42:37;;;;;;;10.03;6.97;;;7.30;1.00;;;;;;5090167;28;20551;-72
2021/03/02 07:45:07;;;;;;;11.57;7.60;;;7.40;7.40;;;;;;5108259;28;20912;-73
2021/03/02 07:47:56;;;;;;;9.80;7.60;;;7.50;1.00;;;;;;5105962;28;20452;-72
2021/03/02 07:50:25;;;;;;;9.03;6.50;;;7.60;1.00;;;;;;5105205;28;20433;-74
2021/03/02 07:53:21;;;;;;;6.93;5.60;;;7.60;1.00;;;;;;5107615;28;20445;-72
2021/03/02 07:56:22;;;;;;;10.80;7.50;;;7.80;1.00;;;;;;5107749;28;20556;-74
2021/03/02 07:59:18;;;;;;;11.77;7.87;;;7.90;1.00;;;;;;5104693;28;20450;-72
2021/03/02 08:02:00;;;;;;;8.67;6.80;;;8.10;1.00;;;;;;5104120;28;20450;-71
2021/03/02 08:04:28;;;;;;;11.33;6.80;;;8.20;1.00;;;;;;5100850;28;20466;-73
2021/03/02 08:07:25;;;;;;;10.83;7.03;;;8.50;1.00;;;;;;5102517;28;20562;-71
2021/03/02 08:09:54;;;;;;;11.20;7.50;;;8.70;1.00;;;;;;5106968;28;20450;-72
2021/03/02 08:12:27;;;;;;;8.80;6.63;;;8.90;1.00;;;;;;5084490;28;21057;-72
2021/03/02 08:14:55;;;;;;;10.73;7.33;;;9.20;1.00;;;;;;5107545;28;20483;-73
2021/03/02 08:17:23;;;;;;;12.17;8.20;;;9.30;1.00;;;;;;5087697;28;20478;-73
2021/03/02 08:19:58;;;;;;;8.57;7.43;;;9.50;1.00;;;;;;5106824;28;20843;-72
2021/03/02 08:23:00;;;;;;;11.80;7.33;;;9.70;1.00;;;;;;5105806;28;20460;-73
2021/03/02 08:25:35;;;;;;;12.37;7.80;;;10.00;1.00;;;;;;5077810;28;20448;-73
2021/03/02 08:28:04;;;;;;;8.60;7.70;;;10.30;1.00;;;;;;5110022;28;20522;-73
2021/03/02 08:30:34;;;;;;;10.27;7.10;;;10.50;1.00;;;;;;5107760;28;20455;-73
2021/03/02 08:33:06;;;;;;;12.23;6.93;;;10.70;1.10;;;;;;5107213;28;20480;-73
2021/03/02 08:35:35;;;;;;;9.40;7.97;;;11.00;1.00;;;;;;5101873;28;20498;-73
2021/03/02 08:38:04;;;;;;;10.27;8.20;;;11.40;2.20;;;;;;5091779;28;20445;-73
2021/03/02 08:40:46;;;;;;;12.13;7.83;;;11.70;3.10;;;;;;5108547;28;20448;-73
2021/03/02 08:43:18;;;;;;;11.50;8.50;;;11.90;1.50;;;;;;5127689;27;20797;-73
2021/03/02 08:45:48;;;;;;;10.60;8.33;;;12.10;4.40;;;;;;5105957;28;20456;-72
2021/03/02 08:48:18;;;;;;;9.97;7.53;;;12.50;4.40;;;;;;5078166;28;20450;-72
2021/03/02 08:50:47;;;;;;;11.30;7.63;;;12.90;4.40;;;;;;5100387;28;21023;-72
2021/03/02 08:53:35;;;;;;;10.03;7.57;;;12.90;3.90;;;;;;5106962;28;20822;-73
2021/03/02 08:56:05;;;;;;;9.40;8.00;;;13.30;5.70;;;;;;5098639;28;20562;-73
2021/03/02 08:58:35;;;;;;;11.20;8.17;;;13.30;5.90;;;;;;5109078;28;20454;-71
2021/03/02 09:01:10;;;;;;;8.80;7.80;;;13.50;7.40;;;;;;5110599;28;20474;-74
2021/03/02 09:03:39;;;;;;;9.80;8.57;;;13.90;7.90;;;;;;5106824;27;20553;-74
2021/03/02 09:06:16;;;;;;;8.50;7.33;;;14.20;7.90;;;;;;5102951;28;21042;-71
2021/03/02 09:08:50;;;;;;;9.13;7.50;;;14.40;6.60;;;;;;5109102;28;20452;-73
2021/03/02 09:11:19;;;;;;;12.97;7.83;;;14.80;8.80;;;;;;5109610;28;20446;-71
2021/03/02 09:13:47;;;;;;;11.00;8.10;;;15.00;10.40;;;;;;5104326;28;20479;-73
2021/03/02 09:16:45;;;;;;;9.18;7.32;;;15.20;11.90;;;;;;5101389;28;20451;-73
2021/03/02 09:19:18;;;;;;;8.20;7.20;;;15.60;12.40;;;;;;5102422;28;20677;-75
2021/03/02 09:21:48;;;;;;;12.93;8.57;;;15.60;12.00;;;;;;5096220;27;20571;-73
2021/03/02 09:24:30;;;;;;;10.40;8.00;;;15.80;11.00;;;;;;5100682;28;20443;-74
2021/03/02 09:27:00;;;;;;;9.50;8.17;;;16.00;11.70;;;;;;5104941;28;21047;-73
2021/03/02 09:29:29;;;;;;;11.00;8.03;;;16.00;9.70;;;;;;5107068;28;20961;-73
2021/03/02 09:31:59;;;;;;;8.77;7.93;;;16.20;13.00;;;;;;5115839;27;20467;-74
2021/03/02 09:34:34;;;;;;;11.07;8.40;;;16.60;15.10;;;;;;5107769;28;20484;-74
2021/03/02 09:37:07;;;;;;;9.97;7.97;;;16.90;15.30;;;;;;5100428;28;20483;-75
2021/03/02 09:39:35;;;;;;;10.30;8.87;;;17.00;15.30;;;;;;5102908;28;20457;-75
2021/03/02 09:42:13;;;;;;;10.03;9.03;;;17.20;16.50;;;;;;5093898;28;20446;-73
2021/03/02 09:44:47;;;;;;;10.33;7.60;;;17.30;16.70;;;;;;5080129;28;20442;-73
2021/03/02 09:47:18;;;;;;;10.83;9.10;;;17.70;20.30;;;;;;5101449;28;20531;-74
2021/03/02 09:49:48;;;;;;;9.00;8.10;;;17.80;19.70;;;;;;5107997;28;20528;-73
2021/03/02 09:52:32;;;;;;;10.10;9.10;;;18.10;20.80;;;;;;5106700;28;20847;-73
2021/03/02 09:55:25;;;;;;;12.70;9.83;;;18.40;23.00;;;;;;5114009;27;20895;-73
2021/03/02 09:57:58;;;;;;;10.10;8.60;;;18.60;24.50;;;;;;5106390;28;20452;-73
2021/03/02 10:00:28;;;;;;;9.83;8.27;;;19.00;25.50;;;;;;5105803;28;20812;-73
2021/03/02 10:02:58;;;;;;;12.20;8.53;;;18.90;24.90;;;;;;5102535;28;20482;-74
2021/03/02 10:05:33;;;;;;;11.77;8.10;;;19.10;25.60;;;;;;5104354;28;20965;-74
2021/03/02 10:08:01;;;;;;;10.97;8.50;;;19.40;27.50;;;;;;5102348;28;20517;-74
2021/03/02 10:10:39;;;;;;;10.80;8.43;;;19.60;28.50;;;;;;5102443;27;20463;-76
2021/03/02 10:13:08;;;;;;;10.73;8.97;;;19.80;29.40;;;;;;5103902;28;20471;-74
2021/03/02 10:15:36;;;;;;;11.23;8.07;;;19.80;29.60;;;;;;5109860;28;20512;-75
2021/03/02 10:18:22;;;;;;;8.90;8.00;;;19.90;29.10;;;;;;5106754;28;20959;-74
2021/03/02 10:21:04;;;;;;;9.10;7.80;;;20.00;29.90;;;;;;5089157;28;20456;-74
2021/03/02 10:23:32;;;;;;;8.67;7.40;;;20.20;32.30;;;;;;5073838;28;20448;-74
2021/03/02 10:26:01;;;;;;;8.70;7.70;;;20.40;32.40;;;;;;5102712;28;21004;-75
2021/03/02 10:28:31;;;;;;;9.47;8.40;;;20.50;33.20;;;;;;5108559;28;20456;-75
2021/03/02 10:30:59;;;;;;;8.00;7.20;;;20.90;37.30;;;;;;5110160;28;20497;-75
2021/03/02 10:33:26;;;;;;;9.67;8.43;;;21.00;37.70;;;;;;5100562;28;21145;-75
2021/03/02 10:35:54;;;;;;;9.13;8.23;;;21.40;38.70;;;;;;5104259;28;20470;-75
2021/03/02 10:38:21;;;;;;;10.33;8.13;;;21.30;38.80;;;;;;5100587;28;20951;-74
2021/03/02 10:40:49;;;;;;;9.00;7.90;;;21.60;41.90;;;;;;5104800;28;20467;-76
2021/03/02 10:43:18;;;;;;;8.20;7.43;;;21.80;43.90;;;;;;5108592;28;20485;-77
2021/03/02 10:45:45;;;;;;;8.77;7.87;;;22.00;44.10;;;;;;5091766;28;20510;-74
2021/03/02 10:48:12;;;;;;;8.93;8.03;;;22.20;47.00;;;;;;5107011;28;20460;-76
2021/03/02 10:50:40;;;;;;;9.30;7.87;;;22.50;49.60;;;;;;5106252;28;20452;-74
2021/03/02 10:53:08;;;;;;;8.20;7.27;;;22.70;50.80;;;;;;5103852;27;20535;-73
2021/03/02 10:55:35;;;;;;;7.80;7.00;;;23.00;52.40;;;;;;5107928;27;20465;-76
2021/03/02 10:58:03;;;;;;;8.50;7.40;;;23.20;57.20;;;;;;5099542;27;20458;-75
2021/03/02 11:00:31;;;;;;;7.90;7.23;;;23.30;72.60;;;;;;5103211;28;20545;-75
2021/03/02 11:02:58;;;;;;;10.57;8.47;;;23.50;56.20;;;;;;5116385;27;21352;-76
2021/03/02 11:05:25;;;;;;;10.00;8.10;;;23.80;58.80;;;;;;5101829;28;20552;-76
2021/03/02 11:07:53;;;;;;;9.30;8.47;;;24.20;61.70;;;;;;5099964;28;20820;-75
2021/03/02 11:10:21;;;;;;;9.83;8.83;;;24.40;64.30;;;;;;5104579;28;21271;-74
2021/03/02 11:12:48;;;;;;;9.00;7.57;;;24.50;62.80;;;;;;5102568;28;20441;-75
2021/03/02 11:15:15;;;;;;;10.50;8.50;;;24.50;62.50;;;;;;5074962;28;20460;-75
2021/03/02 11:17:43;;;;;;;9.30;8.43;;;24.70;63.90;;;;;;5098565;28;20498;-74
2021/03/02 11:20:19;;;;;;;9.37;7.77;;;25.00;66.40;;;;;;5100596;28;20455;-74
2021/03/02 11:22:55;;;;;;;9.13;8.23;;;24.90;64.40;;;;;;5103548;28;21026;-75
2021/03/02 11:25:22;;;;;;;8.40;7.60;;;25.20;67.30;;;;;;5100831;28;20517;-75
2021/03/02 11:27:51;;;;;;;10.17;8.87;;;25.40;68.20;;;;;;5084139;28;20476;-76
2021/03/02 11:30:20;;;;;;;7.60;6.90;;;25.40;67.80;;;;;;5102891;28;20465;-76
2021/03/02 11:32:48;;;;;;;8.33;7.53;;;25.30;67.20;;;;;;5098477;28;20453;-76
2021/03/02 11:35:16;;;;;;;9.10;8.30;;;25.30;66.80;;;;;;5105389;28;20784;-75
2021/03/02 11:37:45;;;;;;;9.50;8.67;;;25.70;68.90;;;;;;5100661;28;20215;-75
2021/03/02 11:40:15;;;;;;;9.82;8.77;;;25.30;62.50;;;;;;5084397;28;20458;-75
2021/03/02 11:42:42;;;;;;;9.30;8.07;;;25.60;66.10;;;;;;5101692;28;20202;-74
2021/03/02 11:45:17;;;;;;;9.50;8.50;;;24.60;54.70;;;;;;5094243;28;20973;-72
2021/03/02 11:47:45;;;;;;;8.20;7.37;;;23.90;45.00;;;;;;5094149;28;20730;-73
2021/03/02 11:50:14;;;;;;;9.30;6.97;;;23.40;39.80;;;;;;5103707;28;20543;-73
2021/03/02 11:52:41;;;;;;;9.00;7.07;;;23.10;35.60;;;;;;5107836;28;20457;-74
2021/03/02 11:55:10;;;;;;;8.80;7.07;;;22.80;33.00;;;;;;5110105;28;20480;-76
2021/03/02 11:57:38;;;;;;;7.70;7.00;;;22.50;30.20;;;;;;5113066;28;20460;-74
2021/03/02 12:00:07;;;;;;;8.23;6.80;;;22.30;28.00;;;;;;5105643;27;20839;-74
2021/03/02 12:02:34;;;;;;;8.90;6.00;;;22.20;26.70;;;;;;5113857;27;20501;-74
2021/03/02 12:05:01;;;;;;;7.90;6.40;;;22.10;25.70;;;;;;5090268;28;20524;-73
2021/03/02 12:07:29;;;;;;;6.37;5.73;;;22.00;25.20;;;;;;5109968;27;20926;-74
2021/03/02 12:09:57;;;;;;;12.40;8.87;;;21.70;22.50;;;;;;5110583;27;20441;-76
2021/03/02 12:12:24;;;;;;;9.03;5.60;;;21.70;24.30;;;;;;5107423;27;20819;-77
2021/03/02 12:14:51;;;;;;;9.33;6.57;;;21.90;25.00;;;;;;5098302;27;20477;-75
2021/03/02 12:17:18;;;;;;;8.13;6.90;;;21.90;24.50;;;;;;5097654;28;20472;-75
2021/03/02 12:19:45;;;;;;;7.10;6.00;;;21.70;22.40;;;;;;5098124;28;20539;-76
2021/03/02 12:22:13;;;;;;;8.73;6.60;;;21.90;24.10;;;;;;5099513;27;20943;-76
2021/03/02 12:24:41;;;;;;;7.13;5.13;;;22.00;24.00;;;;;;5099766;27;20514;-76
2021/03/02 12:27:08;;;;;;;8.17;5.00;;;22.00;25.00;;;;;;5082491;28;20479;-76
2021/03/02 12:29:36;;;;;;;5.33;4.83;;;22.00;24.90;;;;;;5095103;28;20460;-75
2021/03/02 12:32:06;;;;;;;6.27;4.07;;;22.10;24.60;;;;;;5078795;28;20588;-76
2021/03/02 12:34:33;;;;;;;4.87;3.80;;;22.10;23.90;;;;;;5097337;28;20893;-76
2021/03/02 12:37:00;;;;;;;5.47;3.60;;;22.10;23.70;;;;;;5101596;28;20527;-75
2021/03/02 12:39:27;;;;;;;4.53;3.80;;;22.10;22.90;;;;;;5095886;27;20463;-76
2021/03/02 12:41:56;;;;;;;5.27;3.60;;;22.20;22.80;;;;;;5099004;28;20457;-77
2021/03/02 12:44:23;;;;;;;8.90;4.47;;;22.10;22.40;;;;;;5077859;28;20575;-76
2021/03/02 12:46:50;;;;;;;5.73;3.80;;;22.10;22.60;;;;;;5097530;28;20464;-76
2021/03/02 12:49:18;;;;;;;6.60;4.90;;;22.10;23.40;;;;;;5100995;27;20529;-76
2021/03/02 12:51:45;;;;;;;5.20;4.27;;;22.20;23.30;;;;;;5127197;27;20449;-75
2021/03/02 12:54:13;;;;;;;8.10;4.93;;;22.10;34.60;;;;;;5099636;28;20480;-77
2021/03/02 12:56:40;;;;;;;7.47;5.37;;;22.00;33.90;;;;;;5102376;27;20995;-76
2021/03/02 12:59:08;;;;;;;7.30;4.23;;;22.00;21.60;;;;;;5095051;28;20553;-76
2021/03/02 13:01:35;;;;;;;7.07;4.93;;;21.90;20.60;;;;;;5103487;27;20501;-75
2021/03/02 13:04:07;;;;;;;9.70;4.73;;;22.00;21.20;;;;;;5095353;28;20445;-76
2021/03/02 13:06:38;;;;;;;9.70;5.27;;;21.90;19.40;;;;;;5102511;28;21054;-76
2021/03/02 13:09:06;;;;;;;5.90;4.40;;;21.60;18.00;;;;;;5098698;27;20508;-76
2021/03/02 13:11:34;;;;;;;6.17;3.87;;;21.60;17.60;;;;;;5095052;27;20458;-78
2021/03/02 13:14:04;;;;;;;6.63;4.57;;;21.70;17.20;;;;;;5094754;27;20488;-76